createdAt,value
2017-05-29T00:00:25.317Z,27.53
2017-05-29T00:02:53.527Z,27.62
2017-05-29T00:05:21.742Z,29.18
2017-05-29T00:07:50.079Z,29.07
2017-05-29T00:10:18.299Z,30.65
2017-05-29T00:12:46.630Z,33.42
2017-05-29T00:15:14.838Z,34.90
2017-05-29T00:17:43.124Z,34.70
2017-05-29T00:20:11.341Z,34.84
2017-05-29T00:22:39.694Z,34.80
2017-05-29T00:25:07.891Z,33.93
2017-05-29T00:27:36.128Z,33.45
2017-05-29T00:30:04.343Z,34.70
2017-05-29T00:32:32.624Z,38.22
2017-05-29T00:35:00.900Z,37.85
2017-05-29T00:37:29.118Z,38.60
2017-05-29T00:39:57.383Z,36.95
2017-05-29T00:42:25.601Z,37.92
2017-05-29T00:44:53.825Z,38.38
2017-05-29T00:47:22.055Z,37.07
2017-05-29T00:49:50.274Z,37.15
2017-05-29T00:52:18.501Z,38.65
2017-05-29T00:54:46.724Z,33.62
2017-05-29T00:57:14.931Z,31.45
2017-05-29T00:59:43.177Z,30.05
2017-05-29T01:02:11.386Z,31.03
2017-05-29T01:04:39.615Z,29.65
2017-05-29T01:07:07.850Z,29.37
2017-05-29T01:09:36.091Z,29.83
2017-05-29T01:12:04.402Z,30.08
2017-05-29T01:14:32.625Z,30.03
2017-05-29T01:17:00.848Z,31.04
2017-05-29T01:19:29.139Z,31.63
2017-05-29T01:21:57.391Z,31.50
2017-05-29T01:24:25.755Z,31.30
2017-05-29T01:26:53.967Z,32.02
2017-05-29T01:29:22.243Z,30.42
2017-05-29T01:31:50.527Z,32.33
2017-05-29T01:34:18.796Z,31.15
2017-05-29T01:36:47.023Z,31.90
2017-05-29T01:39:15.344Z,30.54
2017-05-29T01:41:43.577Z,31.50
2017-05-29T01:44:11.783Z,28.80
2017-05-29T01:46:40.084Z,27.73
2017-05-29T01:49:08.304Z,26.35
2017-05-29T01:51:36.523Z,26.53
2017-05-29T01:54:04.797Z,27.20
2017-05-29T01:56:33.067Z,25.17
2017-05-29T01:59:01.270Z,24.07
2017-05-29T02:01:29.522Z,25.17
2017-05-29T02:03:57.739Z,25.70
2017-05-29T02:06:25.956Z,24.70
2017-05-29T02:08:54.172Z,24.57
2017-05-29T02:11:22.413Z,24.68
2017-05-29T02:13:50.695Z,25.28
2017-05-29T02:16:18.912Z,26.68
2017-05-29T02:18:47.225Z,28.55
2017-05-29T02:21:15.512Z,27.28
2017-05-29T02:23:43.742Z,26.95
2017-05-29T02:26:12.050Z,28.03
2017-05-29T02:28:40.270Z,26.98
2017-05-29T02:31:08.540Z,26.80
2017-05-29T02:33:36.763Z,26.12
2017-05-29T02:36:05.061Z,27.30
2017-05-29T02:38:33.287Z,23.33
2017-05-29T02:41:01.608Z,23.13
2017-05-29T02:43:29.847Z,21.32
2017-05-29T02:45:58.168Z,23.60
2017-05-29T02:48:26.422Z,23.03
2017-05-29T02:50:54.727Z,23.07
2017-05-29T02:53:22.935Z,22.86
2017-05-29T02:55:51.177Z,22.92
2017-05-29T02:58:19.392Z,23.78
2017-05-29T03:00:47.711Z,24.02
2017-05-29T03:03:15.979Z,24.35
2017-05-29T03:05:44.252Z,27.65
2017-05-29T03:08:12.526Z,28.03
2017-05-29T03:10:40.807Z,32.93
2017-05-29T03:13:09.031Z,31.03
2017-05-29T03:15:37.251Z,31.03
2017-05-29T03:18:05.466Z,34.08
2017-05-29T03:20:33.693Z,36.48
2017-05-29T03:23:01.910Z,39.40
2017-05-29T03:25:30.123Z,37.73
2017-05-29T03:27:58.366Z,39.12
2017-05-29T03:30:26.584Z,40.22
2017-05-29T03:32:54.813Z,39.62
2017-05-29T03:35:23.054Z,40.12
2017-05-29T03:37:51.292Z,37.97
2017-05-29T03:40:19.603Z,40.24
2017-05-29T03:42:47.822Z,43.20
2017-05-29T03:45:16.058Z,41.70
2017-05-29T03:47:44.263Z,39.60
2017-05-29T03:50:12.611Z,40.57
2017-05-29T03:52:40.828Z,37.72
2017-05-29T03:55:09.050Z,38.38
2017-05-29T03:57:37.323Z,35.40
2017-05-29T04:00:05.601Z,35.28
2017-05-29T04:02:33.822Z,33.87
2017-05-29T04:05:02.033Z,33.78
2017-05-29T04:07:30.326Z,31.05
2017-05-29T04:09:58.641Z,29.73
2017-05-29T04:12:26.867Z,29.86
2017-05-29T04:14:55.105Z,27.48
2017-05-29T04:17:23.316Z,27.98
2017-05-29T04:19:51.602Z,25.87
2017-05-29T04:22:19.873Z,27.40
2017-05-29T04:24:48.150Z,26.50
2017-05-29T04:27:16.427Z,30.78
2017-05-29T04:29:44.627Z,26.42
2017-05-29T04:32:12.848Z,25.55
2017-05-29T04:34:41.140Z,24.38
2017-05-29T04:37:09.435Z,22.47
2017-05-29T04:39:37.655Z,22.60
2017-05-29T04:42:06.007Z,21.20
2017-05-29T04:44:34.264Z,20.02
2017-05-29T04:47:02.471Z,19.45
2017-05-29T04:49:30.720Z,18.60
2017-05-29T04:51:59.110Z,19.20
2017-05-29T04:54:27.335Z,19.55
2017-05-29T04:56:55.588Z,19.63
2017-05-29T04:59:23.789Z,18.83
2017-05-29T05:01:52.091Z,19.17
2017-05-29T05:04:20.305Z,20.75
2017-05-29T05:06:48.698Z,19.28
2017-05-29T05:09:16.891Z,19.72
2017-05-29T05:11:45.111Z,19.33
2017-05-29T05:14:13.347Z,20.23
2017-05-29T05:16:41.559Z,22.83
2017-05-29T05:19:09.779Z,20.73
2017-05-29T05:21:37.994Z,19.58
2017-05-29T05:24:06.250Z,19.97
2017-05-29T05:26:34.526Z,18.88
2017-05-29T05:29:02.770Z,20.03
2017-05-29T05:31:30.977Z,20.15
2017-05-29T05:33:59.357Z,19.92
2017-05-29T05:36:27.591Z,19.50
2017-05-29T05:38:55.817Z,19.40
2017-05-29T05:41:24.055Z,17.86
2017-05-29T05:43:52.275Z,18.97
2017-05-29T05:46:20.492Z,19.85
2017-05-29T05:48:48.712Z,20.15
2017-05-29T05:51:16.963Z,18.97
2017-05-29T05:53:45.200Z,19.47
2017-05-29T05:56:13.445Z,18.73
2017-05-29T05:58:41.666Z,18.03
2017-05-29T06:01:09.979Z,16.92
2017-05-29T06:03:38.400Z,18.75
2017-05-29T06:06:07.595Z,17.42
2017-05-29T06:08:35.839Z,16.53
2017-05-29T06:11:04.329Z,16.88
2017-05-29T06:13:32.552Z,17.53
2017-05-29T06:16:00.770Z,18.42
2017-05-29T06:18:29.018Z,17.67
2017-05-29T06:20:59.624Z,18.78
2017-05-29T06:23:28.000Z,17.82
2017-05-29T06:25:56.238Z,16.65
2017-05-29T06:28:24.556Z,17.40
2017-05-29T06:30:52.911Z,16.67
2017-05-29T06:33:21.122Z,16.62
2017-05-29T06:35:49.368Z,16.08
2017-05-29T06:38:17.754Z,15.13
2017-05-29T06:40:46.012Z,16.62
2017-05-29T06:43:14.255Z,15.38
2017-05-29T06:45:42.509Z,15.22
2017-05-29T06:48:10.735Z,16.10
2017-05-29T06:50:38.951Z,15.68
2017-05-29T06:53:07.312Z,15.32
2017-05-29T06:55:35.540Z,15.83
2017-05-29T06:58:03.768Z,14.75
2017-05-29T07:00:32.055Z,15.00
2017-05-29T07:03:00.432Z,14.52
2017-05-29T07:05:28.784Z,14.00
2017-05-29T07:07:56.982Z,15.13
2017-05-29T07:10:25.199Z,15.55
2017-05-29T07:12:54.716Z,14.50
2017-05-29T07:15:22.955Z,14.40
2017-05-29T07:17:51.184Z,14.20
2017-05-29T07:20:19.653Z,13.35
2017-05-29T07:22:47.976Z,15.57
2017-05-29T07:25:16.191Z,15.00
2017-05-29T07:27:44.404Z,17.77
2017-05-29T07:30:12.652Z,15.88
2017-05-29T07:32:40.875Z,14.90
2017-05-29T07:35:09.532Z,16.20
2017-05-29T07:37:37.770Z,14.12
2017-05-29T07:40:06.458Z,14.20
2017-05-29T07:42:35.144Z,14.02
2017-05-29T07:45:03.778Z,14.50
2017-05-29T07:47:32.414Z,13.52
2017-05-29T07:50:00.652Z,14.42
2017-05-29T07:52:28.878Z,14.68
2017-05-29T07:54:57.103Z,15.30
2017-05-29T07:57:25.352Z,13.82
2017-05-29T07:59:53.579Z,14.42
2017-05-29T08:02:21.791Z,14.50
2017-05-29T08:04:50.135Z,14.13
2017-05-29T08:07:18.359Z,13.95
2017-05-29T08:09:46.571Z,14.84
2017-05-29T08:12:14.827Z,14.45
2017-05-29T08:14:43.087Z,14.20
2017-05-29T08:17:11.362Z,15.83
2017-05-29T08:19:39.580Z,15.30
2017-05-29T08:22:07.884Z,15.58
2017-05-29T08:24:36.208Z,15.23
2017-05-29T08:27:04.429Z,14.96
2017-05-29T08:29:32.848Z,14.23
2017-05-29T08:32:01.083Z,14.50
2017-05-29T08:34:29.297Z,14.05
2017-05-29T08:36:57.551Z,14.47
2017-05-29T08:39:25.766Z,13.18
2017-05-29T08:41:53.991Z,13.63
2017-05-29T08:44:22.204Z,14.20
2017-05-29T08:46:50.526Z,14.25
2017-05-29T08:49:18.770Z,14.27
2017-05-29T08:51:46.987Z,15.12
2017-05-29T08:54:15.238Z,14.00
2017-05-29T08:56:43.451Z,13.65
2017-05-29T08:59:11.713Z,14.00
2017-05-29T09:01:39.940Z,13.70
2017-05-29T09:04:08.162Z,14.72
2017-05-29T09:06:36.415Z,14.27
2017-05-29T09:09:04.650Z,13.45
2017-05-29T09:11:32.917Z,14.87
2017-05-29T09:14:01.156Z,15.28
2017-05-29T09:16:29.431Z,14.24
2017-05-29T09:18:57.770Z,14.30
2017-05-29T09:21:25.988Z,14.16
2017-05-29T09:23:54.218Z,14.63
2017-05-29T09:26:22.536Z,13.37
2017-05-29T09:28:50.753Z,14.08
2017-05-29T09:31:18.987Z,14.70
2017-05-29T09:33:47.230Z,14.42
2017-05-29T09:36:15.495Z,14.88
2017-05-29T09:38:43.731Z,13.75
2017-05-29T09:41:11.949Z,13.82
2017-05-29T09:43:40.188Z,14.90
2017-05-29T09:46:08.437Z,14.95
2017-05-29T09:48:36.666Z,14.14
2017-05-29T09:51:04.895Z,13.70
2017-05-29T09:53:33.127Z,14.23
2017-05-29T09:56:01.352Z,12.46
2017-05-29T09:58:29.620Z,13.90
2017-05-29T10:00:57.850Z,12.82
2017-05-29T10:03:26.082Z,12.90
2017-05-29T10:05:54.328Z,11.72
2017-05-29T10:08:22.603Z,12.92
2017-05-29T10:10:50.840Z,12.68
2017-05-29T10:13:19.163Z,12.40
2017-05-29T10:15:47.424Z,13.78
2017-05-29T10:18:15.703Z,12.70
2017-05-29T10:20:43.922Z,12.90
2017-05-29T10:23:12.159Z,14.35
2017-05-29T10:25:40.404Z,14.84
2017-05-29T10:28:08.614Z,13.88
2017-05-29T10:30:36.889Z,13.20
2017-05-29T10:33:05.099Z,14.77
2017-05-29T10:35:33.313Z,14.60
2017-05-29T10:38:01.585Z,15.77
2017-05-29T10:40:29.799Z,14.68
2017-05-29T10:42:58.022Z,14.84
2017-05-29T10:45:26.294Z,14.13
2017-05-29T10:47:54.569Z,13.57
2017-05-29T10:50:22.758Z,14.17
2017-05-29T10:52:51.004Z,13.33
2017-05-29T10:55:19.198Z,13.10
2017-05-29T10:57:47.438Z,13.38
2017-05-29T11:00:15.667Z,13.37
2017-05-29T11:02:43.890Z,13.88
2017-05-29T11:05:12.111Z,13.88
2017-05-29T11:07:40.335Z,13.60
2017-05-29T11:10:08.560Z,14.18
2017-05-29T11:12:36.880Z,13.60
2017-05-29T11:15:05.145Z,11.90
2017-05-29T11:17:33.414Z,11.82
2017-05-29T11:20:01.742Z,12.05
2017-05-29T11:22:29.971Z,12.68
2017-05-29T11:24:58.248Z,12.35
2017-05-29T11:27:26.471Z,13.22
2017-05-29T11:29:54.791Z,13.52
2017-05-29T11:32:23.011Z,13.25
2017-05-29T11:34:51.243Z,12.42
2017-05-29T11:37:19.527Z,10.80
2017-05-29T11:39:47.741Z,10.90
2017-05-29T11:42:16.003Z,12.12
2017-05-29T11:44:44.311Z,12.14
2017-05-29T11:47:12.527Z,10.52
2017-05-29T11:49:40.750Z,8.95
2017-05-29T11:52:08.981Z,8.50
2017-05-29T11:54:37.189Z,9.90
2017-05-29T11:57:05.399Z,9.80
2017-05-29T11:59:33.646Z,10.63
2017-05-29T12:02:01.983Z,11.32
2017-05-29T12:04:30.195Z,9.15
2017-05-29T12:06:58.395Z,8.92
2017-05-29T12:09:26.619Z,9.92
2017-05-29T12:11:54.938Z,9.12
2017-05-29T12:14:23.166Z,10.43
2017-05-29T12:16:51.388Z,9.70
2017-05-29T12:19:19.674Z,9.93
2017-05-29T12:21:48.010Z,10.07
2017-05-29T12:24:16.215Z,9.37
2017-05-29T12:26:44.491Z,8.48
2017-05-29T12:29:12.717Z,10.60
2017-05-29T12:31:40.936Z,8.77
2017-05-29T12:34:09.227Z,8.92
2017-05-29T12:36:37.459Z,8.82
2017-05-29T12:39:05.675Z,8.30
2017-05-29T12:41:33.875Z,7.48
2017-05-29T12:44:02.185Z,9.73
2017-05-29T12:46:30.381Z,7.73
2017-05-29T12:48:58.655Z,7.02
2017-05-29T12:51:26.886Z,8.70
2017-05-29T12:53:55.084Z,7.28
2017-05-29T12:56:23.483Z,8.23
2017-05-29T12:58:51.699Z,8.15
2017-05-29T13:01:20.222Z,8.67
2017-05-29T13:03:48.459Z,7.70
2017-05-29T13:06:16.685Z,6.95
2017-05-29T13:08:44.899Z,5.68
2017-05-29T13:11:13.133Z,5.12
2017-05-29T13:13:41.387Z,4.08
2017-05-29T13:16:09.691Z,4.95
2017-05-29T13:18:37.903Z,4.60
2017-05-29T13:21:06.145Z,4.88
2017-05-29T13:23:34.495Z,4.50
2017-05-29T13:26:02.830Z,5.22
2017-05-29T13:28:31.082Z,4.95
2017-05-29T13:30:59.440Z,4.93
2017-05-29T13:33:27.667Z,5.47
2017-05-29T13:35:56.679Z,5.10
2017-05-29T13:38:24.895Z,5.32
2017-05-29T13:40:53.107Z,4.87
2017-05-29T13:43:21.340Z,5.02
2017-05-29T13:45:49.631Z,5.00
2017-05-29T13:48:17.877Z,5.40
2017-05-29T13:50:46.136Z,5.23
2017-05-29T13:53:14.508Z,5.07
2017-05-29T13:55:42.707Z,6.50
2017-05-29T13:58:10.904Z,5.18
2017-05-29T14:00:39.153Z,4.48
2017-05-29T14:03:07.421Z,4.67
2017-05-29T14:05:35.697Z,6.63
2017-05-29T14:08:09.771Z,4.50
2017-05-29T14:10:38.183Z,4.92
2017-05-29T14:13:06.445Z,4.15
2017-05-29T14:15:34.667Z,4.77
2017-05-29T14:18:02.937Z,4.08
2017-05-29T14:20:31.162Z,3.95
2017-05-29T14:22:59.379Z,4.00
2017-05-29T14:25:27.639Z,4.60
2017-05-29T14:27:55.996Z,5.27
2017-05-29T14:30:24.187Z,4.92
2017-05-29T14:32:52.427Z,4.98
2017-05-29T14:35:20.667Z,4.55
2017-05-29T14:37:48.915Z,4.70
2017-05-29T14:40:17.218Z,4.12
2017-05-29T14:42:45.959Z,4.58
2017-05-29T14:45:14.170Z,4.03
2017-05-29T14:47:42.422Z,4.28
2017-05-29T14:50:10.631Z,4.54
2017-05-29T14:52:39.454Z,4.74
2017-05-29T14:55:07.948Z,5.00
2017-05-29T14:57:36.164Z,4.40
2017-05-29T15:00:04.423Z,4.80
2017-05-29T15:02:32.679Z,5.00
2017-05-29T15:05:00.986Z,5.20
2017-05-29T15:07:29.198Z,4.20
2017-05-29T15:09:57.427Z,4.88
2017-05-29T15:12:25.669Z,5.52
2017-05-29T15:14:53.862Z,4.55
2017-05-29T15:17:22.221Z,5.05
2017-05-29T15:19:50.414Z,4.52
2017-05-29T15:22:18.665Z,4.80
2017-05-29T15:24:46.967Z,5.10
2017-05-29T15:27:15.189Z,5.00
2017-05-29T15:29:43.407Z,5.63
2017-05-29T15:32:11.635Z,6.48
2017-05-29T15:34:39.859Z,5.75
2017-05-29T15:37:08.135Z,6.70
2017-05-29T15:39:36.416Z,6.42
2017-05-29T15:42:04.695Z,6.67
2017-05-29T15:44:32.900Z,6.58
2017-05-29T15:47:01.121Z,5.70
2017-05-29T15:49:29.391Z,7.10
2017-05-29T15:51:57.795Z,5.68
2017-05-29T15:54:26.053Z,5.88
2017-05-29T15:56:54.446Z,5.80
2017-05-29T15:59:22.731Z,5.95
2017-05-29T16:01:50.943Z,6.13
2017-05-29T16:04:19.151Z,6.12
2017-05-29T16:06:47.428Z,6.06
2017-05-29T16:09:15.619Z,6.33
2017-05-29T16:11:43.845Z,6.87
2017-05-29T16:14:13.038Z,6.40
2017-05-29T16:16:41.260Z,6.38
2017-05-29T16:19:09.472Z,6.02
2017-05-29T16:21:37.717Z,6.17
2017-05-29T16:24:05.974Z,6.10
2017-05-29T16:26:34.281Z,6.08
2017-05-29T16:29:02.488Z,6.05
2017-05-29T16:31:30.719Z,6.20
2017-05-29T16:33:58.927Z,5.82
2017-05-29T16:36:27.157Z,6.20
2017-05-29T16:38:55.382Z,6.55
2017-05-29T16:41:23.690Z,5.47
2017-05-29T16:43:51.913Z,5.10
2017-05-29T16:46:20.138Z,5.30
2017-05-29T16:48:48.367Z,5.23
2017-05-29T16:51:16.592Z,5.80
2017-05-29T16:53:44.812Z,5.25
2017-05-29T16:56:13.036Z,5.40
2017-05-29T16:58:41.321Z,5.73
2017-05-29T17:01:09.651Z,5.24
2017-05-29T17:03:37.853Z,5.60
2017-05-29T17:06:06.075Z,5.67
2017-05-29T17:08:34.313Z,5.82
2017-05-29T17:11:02.551Z,6.73
2017-05-29T17:13:30.883Z,6.95
2017-05-29T17:15:59.330Z,6.10
2017-05-29T17:18:27.538Z,6.90
2017-05-29T17:20:55.747Z,6.70
2017-05-29T17:23:23.989Z,6.74
2017-05-29T17:25:52.226Z,6.50
2017-05-29T17:28:20.474Z,6.84
2017-05-29T17:30:48.674Z,7.60
2017-05-29T17:33:16.887Z,7.27
2017-05-29T17:35:44.415Z,7.25
2017-05-29T17:38:12.671Z,6.93
2017-05-29T17:40:40.993Z,7.15
2017-05-29T17:43:09.195Z,7.55
2017-05-29T17:45:37.411Z,7.07
2017-05-29T17:48:05.760Z,6.80
2017-05-29T17:50:34.054Z,8.25
2017-05-29T17:53:02.279Z,7.30
2017-05-29T17:55:30.489Z,8.46
2017-05-29T17:57:58.778Z,8.47
2017-05-29T18:00:26.990Z,8.80
2017-05-29T18:02:55.249Z,8.82
2017-05-29T18:05:23.484Z,8.63
2017-05-29T18:07:51.779Z,8.50
2017-05-29T18:10:19.998Z,7.80
2017-05-29T18:12:48.195Z,8.72
2017-05-29T18:15:16.443Z,8.25
2017-05-29T18:17:44.756Z,8.10
2017-05-29T18:20:12.959Z,8.18
2017-05-29T18:22:41.174Z,8.68
2017-05-29T18:25:09.380Z,8.62
2017-05-29T18:27:37.591Z,8.32
2017-05-29T18:30:05.792Z,9.10
2017-05-29T18:32:34.137Z,9.08
2017-05-29T18:35:02.509Z,9.97
2017-05-29T18:37:30.727Z,9.46
2017-05-29T18:39:58.975Z,10.37
2017-05-29T18:42:27.204Z,10.75
2017-05-29T18:44:55.628Z,9.57
2017-05-29T18:47:23.874Z,9.38
2017-05-29T18:49:52.098Z,9.90
2017-05-29T18:52:20.410Z,10.25
2017-05-29T18:54:48.708Z,10.78
2017-05-29T18:57:16.922Z,10.00
2017-05-29T18:59:45.135Z,9.60
2017-05-29T19:02:13.380Z,10.12
2017-05-29T19:04:41.630Z,10.25
2017-05-29T19:07:09.880Z,9.73
2017-05-29T19:09:38.101Z,9.90
2017-05-29T19:12:06.340Z,10.07
2017-05-29T19:14:34.765Z,9.52
2017-05-29T19:17:02.907Z,9.24
2017-05-29T19:19:31.449Z,9.47
2017-05-29T19:22:01.065Z,9.63
2017-05-29T19:24:29.366Z,9.03
2017-05-29T19:26:57.587Z,9.58
2017-05-29T19:29:25.826Z,9.48
2017-05-29T19:31:54.063Z,9.33
2017-05-29T19:34:22.271Z,9.60
2017-05-29T19:36:51.110Z,9.77
2017-05-29T19:39:19.414Z,11.63
2017-05-29T19:41:47.635Z,9.78
2017-05-29T19:44:15.858Z,10.52
2017-05-29T19:46:44.083Z,10.68
2017-05-29T19:49:12.328Z,11.60
2017-05-29T19:51:40.543Z,12.45
2017-05-29T19:54:08.750Z,11.95
2017-05-29T19:56:37.035Z,12.13
2017-05-29T19:59:05.311Z,12.02
2017-05-29T20:01:33.579Z,11.78
2017-05-29T20:04:01.786Z,12.74
2017-05-29T20:06:30.105Z,12.98
2017-05-29T20:08:58.415Z,13.15
2017-05-29T20:11:26.655Z,12.70
2017-05-29T20:13:54.966Z,12.97
2017-05-29T20:16:23.190Z,12.94
2017-05-29T20:18:51.510Z,13.23
2017-05-29T20:21:19.747Z,13.20
2017-05-29T20:23:48.063Z,13.05
2017-05-29T20:26:16.282Z,13.48
2017-05-29T20:28:44.610Z,13.93
2017-05-29T20:31:12.912Z,14.03
2017-05-29T20:33:41.155Z,14.60
2017-05-29T20:36:09.450Z,14.63
2017-05-29T20:38:37.724Z,14.32
2017-05-29T20:41:05.972Z,14.65
2017-05-29T20:43:34.186Z,15.58
2017-05-29T20:46:02.395Z,16.82
2017-05-29T20:48:30.624Z,15.28
2017-05-29T20:50:58.839Z,15.23
2017-05-29T20:53:27.158Z,15.60
2017-05-29T20:55:55.439Z,15.08
2017-05-29T20:58:23.655Z,16.55
2017-05-29T21:00:51.888Z,15.10
2017-05-29T21:03:20.188Z,17.02
2017-05-29T21:05:48.444Z,16.48
2017-05-29T21:08:16.675Z,15.23
2017-05-29T21:10:44.886Z,18.22
2017-05-29T21:13:13.107Z,17.37
2017-05-29T21:15:41.327Z,17.60
2017-05-29T21:18:09.566Z,18.65
2017-05-29T21:20:37.887Z,20.33
2017-05-29T21:23:06.187Z,19.50
2017-05-29T21:25:34.438Z,18.38
2017-05-29T21:28:02.651Z,17.58
2017-05-29T21:30:30.876Z,18.66
2017-05-29T21:32:59.087Z,18.60
2017-05-29T21:35:27.335Z,17.47
2017-05-29T21:37:55.536Z,18.68
2017-05-29T21:40:23.799Z,18.95
2017-05-29T21:42:52.028Z,17.70
2017-05-29T21:45:20.238Z,19.98
2017-05-29T21:47:48.492Z,18.82
2017-05-29T21:50:16.880Z,19.42
2017-05-29T21:52:45.227Z,20.85
2017-05-29T21:55:13.403Z,19.50
2017-05-29T21:57:41.682Z,20.10
2017-05-29T22:00:09.983Z,21.15
2017-05-29T22:02:38.207Z,19.83
2017-05-29T22:05:06.507Z,20.28
2017-05-29T22:07:34.811Z,19.80
2017-05-29T22:10:03.055Z,21.07
2017-05-29T22:12:31.364Z,20.42
2017-05-29T22:14:59.579Z,20.45
2017-05-29T22:17:27.802Z,20.22
2017-05-29T22:19:56.071Z,20.55
2017-05-29T22:22:24.370Z,20.18
2017-05-29T22:24:52.590Z,20.00
2017-05-29T22:27:20.905Z,18.72
2017-05-29T22:29:49.130Z,19.50
2017-05-29T22:32:17.340Z,19.53
2017-05-29T22:34:45.601Z,19.88
2017-05-29T22:37:13.806Z,18.70
2017-05-29T22:39:42.076Z,20.08
2017-05-29T22:42:10.290Z,19.47
2017-05-29T22:44:38.544Z,18.82
2017-05-29T22:47:06.798Z,19.74
2017-05-29T22:49:35.019Z,19.48
2017-05-29T22:52:03.255Z,19.00
2017-05-29T22:54:31.534Z,18.72
2017-05-29T22:56:59.750Z,18.90
2017-05-29T22:59:27.974Z,19.00
2017-05-29T23:01:56.195Z,18.90
2017-05-29T23:04:24.422Z,18.43
2017-05-29T23:06:52.719Z,19.13
2017-05-29T23:09:20.981Z,19.12
2017-05-29T23:11:49.227Z,18.62
2017-05-29T23:14:17.436Z,17.73
2017-05-29T23:16:45.701Z,18.18
2017-05-29T23:19:13.984Z,18.68
2017-05-29T23:21:42.254Z,18.67
2017-05-29T23:24:10.487Z,18.43
2017-05-29T23:26:38.711Z,19.10
2017-05-29T23:29:07.054Z,18.56
2017-05-29T23:31:35.359Z,18.85
2017-05-29T23:34:03.569Z,19.08
2017-05-29T23:36:31.802Z,18.52
2017-05-29T23:39:00.028Z,18.78
2017-05-29T23:41:28.247Z,19.12
2017-05-29T23:43:56.528Z,18.85
2017-05-29T23:46:24.907Z,18.23
2017-05-29T23:48:53.179Z,17.93
2017-05-29T23:51:21.473Z,17.74
2017-05-29T23:53:49.730Z,18.10
2017-05-29T23:56:18.007Z,17.75
2017-05-29T23:58:46.282Z,19.22
